sensor_id;sensor_type;location;lat;lon;timestamp;P1;durP1;ratioP1;P2;durP2;ratioP2
72427;SDS011;60419;48.880;18.036;2023-07-16T00:00:40;6.43;;;5.25;;
72427;SDS011;60419;48.880;18.036;2023-07-16T00:03:25;7.72;;;5.55;;
72427;SDS011;60419;48.880;18.036;2023-07-16T00:06:10;7.32;;;5.43;;
72427;SDS011;60419;48.880;18.036;2023-07-16T00:08:56;6.38;;;5.20;;
72427;SDS011;60419;48.880;18.036;2023-07-16T00:11:41;5.95;;;4.97;;
72427;SDS011;60419;48.880;18.036;2023-07-16T00:14:27;7.25;;;5.65;;
72427;SDS011;60419;48.880;18.036;2023-07-16T00:17:12;7.15;;;5.32;;
72427;SDS011;60419;48.880;18.036;2023-07-16T00:19:57;9.07;;;5.60;;
72427;SDS011;60419;48.880;18.036;2023-07-16T00:22:43;6.63;;;5.20;;
72427;SDS011;60419;48.880;18.036;2023-07-16T00:25:28;7.50;;;5.63;;
72427;SDS011;60419;48.880;18.036;2023-07-16T00:28:14;7.63;;;5.53;;
72427;SDS011;60419;48.880;18.036;2023-07-16T00:30:59;6.03;;;5.28;;
72427;SDS011;60419;48.880;18.036;2023-07-16T00:33:44;6.00;;;5.40;;
72427;SDS011;60419;48.880;18.036;2023-07-16T00:36:30;7.03;;;5.63;;
72427;SDS011;60419;48.880;18.036;2023-07-16T00:39:15;7.20;;;5.55;;
72427;SDS011;60419;48.880;18.036;2023-07-16T00:42:00;7.35;;;6.05;;
72427;SDS011;60419;48.880;18.036;2023-07-16T00:44:46;7.80;;;5.35;;
72427;SDS011;60419;48.880;18.036;2023-07-16T00:47:31;7.43;;;6.22;;
72427;SDS011;60419;48.880;18.036;2023-07-16T00:50:17;6.53;;;5.90;;
72427;SDS011;60419;48.880;18.036;2023-07-16T00:53:02;6.65;;;5.95;;
72427;SDS011;60419;48.880;18.036;2023-07-16T00:55:48;7.50;;;6.30;;
72427;SDS011;60419;48.880;18.036;2023-07-16T00:58:33;8.07;;;6.25;;
72427;SDS011;60419;48.880;18.036;2023-07-16T01:01:19;8.75;;;6.45;;
72427;SDS011;60419;48.880;18.036;2023-07-16T01:04:04;8.98;;;6.38;;
72427;SDS011;60419;48.880;18.036;2023-07-16T01:06:53;7.53;;;6.13;;
72427;SDS011;60419;48.880;18.036;2023-07-16T01:09:43;7.13;;;6.32;;
72427;SDS011;60419;48.880;18.036;2023-07-16T01:12:29;7.72;;;6.30;;
72427;SDS011;60419;48.880;18.036;2023-07-16T01:15:17;7.97;;;6.50;;
72427;SDS011;60419;48.880;18.036;2023-07-16T01:18:03;7.72;;;6.50;;
72427;SDS011;60419;48.880;18.036;2023-07-16T01:20:50;8.32;;;6.22;;
72427;SDS011;60419;48.880;18.036;2023-07-16T01:23:40;8.50;;;7.15;;
72427;SDS011;60419;48.880;18.036;2023-07-16T01:30:01;8.75;;;6.55;;
72427;SDS011;60419;48.880;18.036;2023-07-16T01:32:48;8.88;;;6.93;;
72427;SDS011;60419;48.880;18.036;2023-07-16T01:35:33;8.57;;;6.32;;
72427;SDS011;60419;48.880;18.036;2023-07-16T01:38:20;10.07;;;7.00;;
72427;SDS011;60419;48.880;18.036;2023-07-16T01:41:06;7.60;;;6.63;;
72427;SDS011;60419;48.880;18.036;2023-07-16T01:43:51;10.13;;;7.00;;
72427;SDS011;60419;48.880;18.036;2023-07-16T01:46:36;10.27;;;6.97;;
72427;SDS011;60419;48.880;18.036;2023-07-16T01:49:22;10.77;;;7.13;;
72427;SDS011;60419;48.880;18.036;2023-07-16T01:52:08;7.28;;;6.40;;
72427;SDS011;60419;48.880;18.036;2023-07-16T01:54:54;7.60;;;6.80;;
72427;SDS011;60419;48.880;18.036;2023-07-16T01:57:39;7.50;;;6.10;;
72427;SDS011;60419;48.880;18.036;2023-07-16T02:00:24;7.82;;;6.40;;
72427;SDS011;60419;48.880;18.036;2023-07-16T02:03:10;7.90;;;7.10;;
72427;SDS011;60419;48.880;18.036;2023-07-16T02:05:55;8.07;;;6.68;;
72427;SDS011;60419;48.880;18.036;2023-07-16T02:08:40;8.23;;;6.50;;
72427;SDS011;60419;48.880;18.036;2023-07-16T02:11:26;8.02;;;6.65;;
72427;SDS011;60419;48.880;18.036;2023-07-16T02:14:11;7.45;;;6.50;;
72427;SDS011;60419;48.880;18.036;2023-07-16T02:16:58;7.07;;;6.25;;
72427;SDS011;60419;48.880;18.036;2023-07-16T02:19:43;10.15;;;6.38;;
72427;SDS011;60419;48.880;18.036;2023-07-16T02:22:28;7.43;;;5.93;;
72427;SDS011;60419;48.880;18.036;2023-07-16T02:25:14;8.65;;;5.93;;
72427;SDS011;60419;48.880;18.036;2023-07-16T02:27:59;6.90;;;6.13;;
72427;SDS011;60419;48.880;18.036;2023-07-16T02:30:45;6.50;;;5.90;;
72427;SDS011;60419;48.880;18.036;2023-07-16T02:33:30;8.32;;;5.88;;
72427;SDS011;60419;48.880;18.036;2023-07-16T02:36:15;6.93;;;5.65;;
72427;SDS011;60419;48.880;18.036;2023-07-16T02:39:01;7.03;;;5.47;;
72427;SDS011;60419;48.880;18.036;2023-07-16T02:41:46;7.25;;;5.30;;
72427;SDS011;60419;48.880;18.036;2023-07-16T02:44:31;6.20;;;5.47;;
72427;SDS011;60419;48.880;18.036;2023-07-16T02:47:17;8.55;;;6.03;;
72427;SDS011;60419;48.880;18.036;2023-07-16T02:50:03;6.72;;;5.57;;
72427;SDS011;60419;48.880;18.036;2023-07-16T02:52:49;8.80;;;5.70;;
72427;SDS011;60419;48.880;18.036;2023-07-16T02:55:34;7.15;;;5.40;;
72427;SDS011;60419;48.880;18.036;2023-07-16T02:58:20;10.93;;;5.20;;
72427;SDS011;60419;48.880;18.036;2023-07-16T03:01:05;7.70;;;5.30;;
72427;SDS011;60419;48.880;18.036;2023-07-16T03:03:51;6.45;;;5.40;;
72427;SDS011;60419;48.880;18.036;2023-07-16T03:06:36;5.97;;;5.07;;
72427;SDS011;60419;48.880;18.036;2023-07-16T03:09:22;7.45;;;5.20;;
72427;SDS011;60419;48.880;18.036;2023-07-16T03:12:07;7.43;;;5.15;;
72427;SDS011;60419;48.880;18.036;2023-07-16T03:14:53;7.57;;;5.30;;
72427;SDS011;60419;48.880;18.036;2023-07-16T03:17:39;8.88;;;4.88;;
72427;SDS011;60419;48.880;18.036;2023-07-16T03:20:24;7.47;;;5.15;;
72427;SDS011;60419;48.880;18.036;2023-07-16T03:23:10;7.00;;;5.40;;
72427;SDS011;60419;48.880;18.036;2023-07-16T03:25:55;6.13;;;4.95;;
72427;SDS011;60419;48.880;18.036;2023-07-16T03:28:41;10.15;;;5.35;;
72427;SDS011;60419;48.880;18.036;2023-07-16T03:31:27;8.07;;;4.90;;
72427;SDS011;60419;48.880;18.036;2023-07-16T03:34:12;8.23;;;5.20;;
72427;SDS011;60419;48.880;18.036;2023-07-16T03:36:57;6.78;;;5.35;;
72427;SDS011;60419;48.880;18.036;2023-07-16T03:39:43;7.55;;;5.10;;
72427;SDS011;60419;48.880;18.036;2023-07-16T03:42:28;9.27;;;5.07;;
72427;SDS011;60419;48.880;18.036;2023-07-16T03:45:13;6.82;;;5.18;;
72427;SDS011;60419;48.880;18.036;2023-07-16T03:47:59;5.75;;;4.85;;
72427;SDS011;60419;48.880;18.036;2023-07-16T03:50:46;6.80;;;4.97;;
72427;SDS011;60419;48.880;18.036;2023-07-16T03:53:31;7.22;;;5.32;;
72427;SDS011;60419;48.880;18.036;2023-07-16T03:56:16;6.70;;;5.00;;
72427;SDS011;60419;48.880;18.036;2023-07-16T03:59:02;6.30;;;4.68;;
72427;SDS011;60419;48.880;18.036;2023-07-16T04:01:47;6.68;;;4.60;;
72427;SDS011;60419;48.880;18.036;2023-07-16T04:04:33;7.22;;;4.60;;
72427;SDS011;60419;48.880;18.036;2023-07-16T04:07:18;8.00;;;4.93;;
72427;SDS011;60419;48.880;18.036;2023-07-16T04:10:04;8.40;;;5.13;;
72427;SDS011;60419;48.880;18.036;2023-07-16T04:12:49;7.18;;;4.65;;
72427;SDS011;60419;48.880;18.036;2023-07-16T04:15:35;6.50;;;5.30;;
72427;SDS011;60419;48.880;18.036;2023-07-16T04:18:21;6.35;;;4.78;;
72427;SDS011;60419;48.880;18.036;2023-07-16T04:21:07;6.90;;;4.72;;
72427;SDS011;60419;48.880;18.036;2023-07-16T04:23:52;5.38;;;4.47;;
72427;SDS011;60419;48.880;18.036;2023-07-16T04:26:37;5.57;;;4.63;;
72427;SDS011;60419;48.880;18.036;2023-07-16T04:29:23;5.75;;;4.30;;
72427;SDS011;60419;48.880;18.036;2023-07-16T04:32:08;5.43;;;3.90;;
72427;SDS011;60419;48.880;18.036;2023-07-16T04:34:54;5.82;;;4.25;;
72427;SDS011;60419;48.880;18.036;2023-07-16T04:37:39;6.65;;;4.22;;
72427;SDS011;60419;48.880;18.036;2023-07-16T04:40:24;6.07;;;4.15;;
72427;SDS011;60419;48.880;18.036;2023-07-16T04:43:10;6.38;;;3.80;;
72427;SDS011;60419;48.880;18.036;2023-07-16T04:45:55;6.63;;;3.67;;
72427;SDS011;60419;48.880;18.036;2023-07-16T04:48:41;5.78;;;3.67;;
72427;SDS011;60419;48.880;18.036;2023-07-16T04:51:26;7.55;;;3.45;;
72427;SDS011;60419;48.880;18.036;2023-07-16T04:54:11;6.45;;;3.88;;
72427;SDS011;60419;48.880;18.036;2023-07-16T04:56:57;5.53;;;3.65;;
72427;SDS011;60419;48.880;18.036;2023-07-16T04:59:42;6.35;;;3.72;;
72427;SDS011;60419;48.880;18.036;2023-07-16T05:02:28;6.07;;;3.50;;
72427;SDS011;60419;48.880;18.036;2023-07-16T05:05:13;6.80;;;3.83;;
72427;SDS011;60419;48.880;18.036;2023-07-16T05:07:59;5.20;;;3.58;;
72427;SDS011;60419;48.880;18.036;2023-07-16T05:10:44;6.25;;;3.70;;
72427;SDS011;60419;48.880;18.036;2023-07-16T05:13:29;4.95;;;3.40;;
72427;SDS011;60419;48.880;18.036;2023-07-16T05:16:15;5.55;;;3.70;;
72427;SDS011;60419;48.880;18.036;2023-07-16T05:19:00;5.15;;;3.10;;
72427;SDS011;60419;48.880;18.036;2023-07-16T05:21:45;7.97;;;3.55;;
72427;SDS011;60419;48.880;18.036;2023-07-16T05:24:31;7.43;;;3.60;;
72427;SDS011;60419;48.880;18.036;2023-07-16T05:27:17;6.22;;;3.47;;
72427;SDS011;60419;48.880;18.036;2023-07-16T05:30:02;6.65;;;3.45;;
72427;SDS011;60419;48.880;18.036;2023-07-16T05:32:48;6.68;;;3.58;;
72427;SDS011;60419;48.880;18.036;2023-07-16T05:35:33;4.85;;;3.17;;
72427;SDS011;60419;48.880;18.036;2023-07-16T05:38:19;5.35;;;3.85;;
72427;SDS011;60419;48.880;18.036;2023-07-16T05:41:04;8.52;;;3.78;;
72427;SDS011;60419;48.880;18.036;2023-07-16T05:43:49;5.63;;;3.70;;
72427;SDS011;60419;48.880;18.036;2023-07-16T05:46:35;4.85;;;3.30;;
72427;SDS011;60419;48.880;18.036;2023-07-16T05:49:20;6.40;;;3.58;;
72427;SDS011;60419;48.880;18.036;2023-07-16T05:52:06;7.97;;;4.10;;
72427;SDS011;60419;48.880;18.036;2023-07-16T05:54:51;4.90;;;3.25;;
72427;SDS011;60419;48.880;18.036;2023-07-16T05:57:36;7.15;;;3.78;;
72427;SDS011;60419;48.880;18.036;2023-07-16T06:00:22;4.75;;;3.40;;
72427;SDS011;60419;48.880;18.036;2023-07-16T06:03:07;6.60;;;3.63;;
72427;SDS011;60419;48.880;18.036;2023-07-16T06:05:53;6.68;;;3.53;;
72427;SDS011;60419;48.880;18.036;2023-07-16T06:08:38;5.47;;;3.42;;
72427;SDS011;60419;48.880;18.036;2023-07-16T06:11:24;6.20;;;3.38;;
72427;SDS011;60419;48.880;18.036;2023-07-16T06:14:09;5.75;;;3.67;;
72427;SDS011;60419;48.880;18.036;2023-07-16T06:16:54;5.50;;;3.80;;
72427;SDS011;60419;48.880;18.036;2023-07-16T06:19:40;5.20;;;3.50;;
72427;SDS011;60419;48.880;18.036;2023-07-16T06:22:25;6.75;;;4.15;;
72427;SDS011;60419;48.880;18.036;2023-07-16T06:25:11;6.28;;;4.20;;
72427;SDS011;60419;48.880;18.036;2023-07-16T06:27:57;6.45;;;3.95;;
72427;SDS011;60419;48.880;18.036;2023-07-16T06:30:43;7.25;;;4.00;;
72427;SDS011;60419;48.880;18.036;2023-07-16T06:33:28;8.05;;;4.18;;
72427;SDS011;60419;48.880;18.036;2023-07-16T06:36:13;5.45;;;4.10;;
72427;SDS011;60419;48.880;18.036;2023-07-16T06:38:59;6.28;;;4.10;;
72427;SDS011;60419;48.880;18.036;2023-07-16T06:41:45;6.93;;;4.35;;
72427;SDS011;60419;48.880;18.036;2023-07-16T06:44:30;5.60;;;4.63;;
72427;SDS011;60419;48.880;18.036;2023-07-16T06:47:16;7.18;;;4.82;;
72427;SDS011;60419;48.880;18.036;2023-07-16T06:50:01;7.25;;;4.40;;
72427;SDS011;60419;48.880;18.036;2023-07-16T06:52:47;7.40;;;4.57;;
72427;SDS011;60419;48.880;18.036;2023-07-16T06:55:33;6.75;;;4.40;;
72427;SDS011;60419;48.880;18.036;2023-07-16T06:58:18;5.90;;;4.38;;
72427;SDS011;60419;48.880;18.036;2023-07-16T07:01:04;6.35;;;4.40;;
72427;SDS011;60419;48.880;18.036;2023-07-16T07:03:49;6.43;;;4.18;;
72427;SDS011;60419;48.880;18.036;2023-07-16T07:06:34;9.23;;;4.40;;
72427;SDS011;60419;48.880;18.036;2023-07-16T07:09:20;6.50;;;4.18;;
72427;SDS011;60419;48.880;18.036;2023-07-16T07:12:05;8.00;;;4.30;;
72427;SDS011;60419;48.880;18.036;2023-07-16T07:14:51;6.78;;;4.97;;
72427;SDS011;60419;48.880;18.036;2023-07-16T07:17:36;6.32;;;4.60;;
72427;SDS011;60419;48.880;18.036;2023-07-16T07:20:22;8.23;;;5.15;;
72427;SDS011;60419;48.880;18.036;2023-07-16T07:23:07;9.57;;;4.85;;
72427;SDS011;60419;48.880;18.036;2023-07-16T07:25:52;6.60;;;4.80;;
72427;SDS011;60419;48.880;18.036;2023-07-16T07:28:38;8.20;;;5.25;;
72427;SDS011;60419;48.880;18.036;2023-07-16T07:31:23;7.78;;;5.28;;
72427;SDS011;60419;48.880;18.036;2023-07-16T07:34:09;6.47;;;5.22;;
72427;SDS011;60419;48.880;18.036;2023-07-16T07:36:54;7.28;;;5.38;;
72427;SDS011;60419;48.880;18.036;2023-07-16T07:39:39;8.30;;;5.05;;
72427;SDS011;60419;48.880;18.036;2023-07-16T07:42:25;6.85;;;5.20;;
72427;SDS011;60419;48.880;18.036;2023-07-16T07:45:12;6.05;;;4.93;;
72427;SDS011;60419;48.880;18.036;2023-07-16T07:47:57;6.35;;;5.03;;
72427;SDS011;60419;48.880;18.036;2023-07-16T07:50:42;8.77;;;5.80;;
72427;SDS011;60419;48.880;18.036;2023-07-16T07:53:28;6.40;;;5.63;;
72427;SDS011;60419;48.880;18.036;2023-07-16T07:56:13;8.43;;;5.95;;
72427;SDS011;60419;48.880;18.036;2023-07-16T07:58:58;7.55;;;5.85;;
72427;SDS011;60419;48.880;18.036;2023-07-16T08:01:44;6.22;;;5.63;;
72427;SDS011;60419;48.880;18.036;2023-07-16T08:04:29;7.68;;;5.43;;
72427;SDS011;60419;48.880;18.036;2023-07-16T08:07:17;8.23;;;5.40;;
72427;SDS011;60419;48.880;18.036;2023-07-16T08:10:02;8.63;;;5.53;;
72427;SDS011;60419;48.880;18.036;2023-07-16T08:12:48;6.45;;;5.25;;
72427;SDS011;60419;48.880;18.036;2023-07-16T08:15:34;7.70;;;5.65;;
72427;SDS011;60419;48.880;18.036;2023-07-16T08:18:19;11.18;;;5.85;;
72427;SDS011;60419;48.880;18.036;2023-07-16T08:21:04;7.35;;;5.60;;
72427;SDS011;60419;48.880;18.036;2023-07-16T08:23:50;6.82;;;5.60;;
72427;SDS011;60419;48.880;18.036;2023-07-16T08:26:35;7.90;;;5.75;;
72427;SDS011;60419;48.880;18.036;2023-07-16T08:29:20;7.28;;;6.00;;
72427;SDS011;60419;48.880;18.036;2023-07-16T08:32:06;7.70;;;5.13;;
72427;SDS011;60419;48.880;18.036;2023-07-16T08:34:52;6.38;;;5.60;;
72427;SDS011;60419;48.880;18.036;2023-07-16T08:37:37;9.27;;;5.90;;
72427;SDS011;60419;48.880;18.036;2023-07-16T08:40:22;8.80;;;6.07;;
72427;SDS011;60419;48.880;18.036;2023-07-16T08:43:08;6.38;;;5.68;;
72427;SDS011;60419;48.880;18.036;2023-07-16T08:45:57;6.97;;;5.70;;
72427;SDS011;60419;48.880;18.036;2023-07-16T08:48:42;7.07;;;5.53;;
72427;SDS011;60419;48.880;18.036;2023-07-16T08:51:29;7.63;;;5.82;;
72427;SDS011;60419;48.880;18.036;2023-07-16T08:54:15;6.97;;;5.18;;
72427;SDS011;60419;48.880;18.036;2023-07-16T08:57:02;10.43;;;5.70;;
72427;SDS011;60419;48.880;18.036;2023-07-16T08:59:48;6.88;;;5.45;;
72427;SDS011;60419;48.880;18.036;2023-07-16T09:02:34;8.73;;;5.85;;
72427;SDS011;60419;48.880;18.036;2023-07-16T09:05:20;7.35;;;5.63;;
72427;SDS011;60419;48.880;18.036;2023-07-16T09:08:06;8.70;;;5.35;;
72427;SDS011;60419;48.880;18.036;2023-07-16T09:10:53;7.22;;;5.00;;
72427;SDS011;60419;48.880;18.036;2023-07-16T09:13:45;6.80;;;4.68;;
72427;SDS011;60419;48.880;18.036;2023-07-16T09:16:33;6.47;;;4.88;;
72427;SDS011;60419;48.880;18.036;2023-07-16T09:19:19;6.05;;;4.30;;
72427;SDS011;60419;48.880;18.036;2023-07-16T09:22:08;6.15;;;4.88;;
72427;SDS011;60419;48.880;18.036;2023-07-16T09:24:54;6.47;;;5.25;;
72427;SDS011;60419;48.880;18.036;2023-07-16T09:27:39;6.53;;;4.35;;
72427;SDS011;60419;48.880;18.036;2023-07-16T09:30:24;5.65;;;4.53;;
72427;SDS011;60419;48.880;18.036;2023-07-16T09:33:10;6.90;;;5.18;;
72427;SDS011;60419;48.880;18.036;2023-07-16T09:35:58;7.72;;;4.88;;
72427;SDS011;60419;48.880;18.036;2023-07-16T09:38:43;8.85;;;5.22;;
72427;SDS011;60419;48.880;18.036;2023-07-16T09:41:29;5.93;;;4.25;;
72427;SDS011;60419;48.880;18.036;2023-07-16T09:44:15;8.30;;;4.60;;
72427;SDS011;60419;48.880;18.036;2023-07-16T09:47:01;5.97;;;4.53;;
72427;SDS011;60419;48.880;18.036;2023-07-16T09:49:47;6.50;;;4.40;;
72427;SDS011;60419;48.880;18.036;2023-07-16T09:52:32;6.35;;;4.85;;
72427;SDS011;60419;48.880;18.036;2023-07-16T09:55:18;6.38;;;4.55;;
72427;SDS011;60419;48.880;18.036;2023-07-16T09:58:08;8.35;;;4.63;;
72427;SDS011;60419;48.880;18.036;2023-07-16T10:00:56;6.70;;;4.50;;
72427;SDS011;60419;48.880;18.036;2023-07-16T10:03:49;7.65;;;4.88;;
72427;SDS011;60419;48.880;18.036;2023-07-16T10:06:35;7.78;;;5.20;;
72427;SDS011;60419;48.880;18.036;2023-07-16T10:12:23;7.43;;;4.78;;
72427;SDS011;60419;48.880;18.036;2023-07-16T10:15:11;7.18;;;4.75;;
72427;SDS011;60419;48.880;18.036;2023-07-16T10:17:56;5.63;;;4.82;;
72427;SDS011;60419;48.880;18.036;2023-07-16T10:20:42;7.55;;;4.95;;
72427;SDS011;60419;48.880;18.036;2023-07-16T10:23:36;6.88;;;4.70;;
72427;SDS011;60419;48.880;18.036;2023-07-16T10:26:26;8.02;;;5.00;;
72427;SDS011;60419;48.880;18.036;2023-07-16T10:29:13;6.95;;;4.78;;
72427;SDS011;60419;48.880;18.036;2023-07-16T10:32:00;6.25;;;4.43;;
72427;SDS011;60419;48.880;18.036;2023-07-16T10:34:47;6.78;;;4.57;;
72427;SDS011;60419;48.880;18.036;2023-07-16T10:37:32;6.53;;;4.57;;
72427;SDS011;60419;48.880;18.036;2023-07-16T10:40:18;6.13;;;4.50;;
72427;SDS011;60419;48.880;18.036;2023-07-16T10:43:03;6.53;;;4.22;;
72427;SDS011;60419;48.880;18.036;2023-07-16T10:45:50;6.82;;;4.38;;
72427;SDS011;60419;48.880;18.036;2023-07-16T10:48:36;5.97;;;4.47;;
72427;SDS011;60419;48.880;18.036;2023-07-16T10:51:25;7.55;;;4.68;;
72427;SDS011;60419;48.880;18.036;2023-07-16T10:56:56;6.57;;;4.73;;
72427;SDS011;60419;48.880;18.036;2023-07-16T10:59:42;6.47;;;4.47;;
72427;SDS011;60419;48.880;18.036;2023-07-16T11:02:29;6.20;;;4.50;;
72427;SDS011;60419;48.880;18.036;2023-07-16T11:05:15;5.78;;;4.28;;
72427;SDS011;60419;48.880;18.036;2023-07-16T11:08:01;5.95;;;4.43;;
72427;SDS011;60419;48.880;18.036;2023-07-16T11:10:52;7.15;;;4.45;;
72427;SDS011;60419;48.880;18.036;2023-07-16T11:13:41;5.78;;;4.50;;
72427;SDS011;60419;48.880;18.036;2023-07-16T11:16:26;5.97;;;4.20;;
72427;SDS011;60419;48.880;18.036;2023-07-16T11:19:19;6.57;;;4.60;;
72427;SDS011;60419;48.880;18.036;2023-07-16T11:22:06;6.15;;;4.38;;
72427;SDS011;60419;48.880;18.036;2023-07-16T11:24:53;8.25;;;4.60;;
72427;SDS011;60419;48.880;18.036;2023-07-16T11:27:40;6.45;;;4.50;;
72427;SDS011;60419;48.880;18.036;2023-07-16T11:30:26;7.22;;;4.25;;
72427;SDS011;60419;48.880;18.036;2023-07-16T11:33:13;6.75;;;4.18;;
72427;SDS011;60419;48.880;18.036;2023-07-16T11:35:59;7.18;;;4.18;;
72427;SDS011;60419;48.880;18.036;2023-07-16T11:38:47;5.55;;;4.05;;
72427;SDS011;60419;48.880;18.036;2023-07-16T11:41:33;6.38;;;4.65;;
72427;SDS011;60419;48.880;18.036;2023-07-16T11:44:19;6.25;;;4.25;;
72427;SDS011;60419;48.880;18.036;2023-07-16T11:47:04;7.80;;;4.30;;
72427;SDS011;60419;48.880;18.036;2023-07-16T11:49:50;6.20;;;4.10;;
72427;SDS011;60419;48.880;18.036;2023-07-16T11:52:35;4.95;;;3.97;;
72427;SDS011;60419;48.880;18.036;2023-07-16T11:55:21;5.53;;;4.03;;
72427;SDS011;60419;48.880;18.036;2023-07-16T11:58:06;4.95;;;3.97;;
72427;SDS011;60419;48.880;18.036;2023-07-16T12:00:52;6.85;;;4.45;;
72427;SDS011;60419;48.880;18.036;2023-07-16T12:03:38;6.70;;;4.10;;
72427;SDS011;60419;48.880;18.036;2023-07-16T12:06:23;6.63;;;4.30;;
72427;SDS011;60419;48.880;18.036;2023-07-16T12:09:09;5.70;;;4.25;;
72427;SDS011;60419;48.880;18.036;2023-07-16T12:11:54;5.78;;;4.70;;
72427;SDS011;60419;48.880;18.036;2023-07-16T12:14:40;8.38;;;4.47;;
72427;SDS011;60419;48.880;18.036;2023-07-16T12:17:26;7.82;;;4.78;;
72427;SDS011;60419;48.880;18.036;2023-07-16T12:20:11;7.80;;;4.50;;
72427;SDS011;60419;48.880;18.036;2023-07-16T12:22:57;5.22;;;4.40;;
72427;SDS011;60419;48.880;18.036;2023-07-16T12:25:42;6.97;;;4.18;;
72427;SDS011;60419;48.880;18.036;2023-07-16T12:28:28;5.85;;;4.05;;
72427;SDS011;60419;48.880;18.036;2023-07-16T12:31:13;6.53;;;4.53;;
72427;SDS011;60419;48.880;18.036;2023-07-16T12:34:00;6.35;;;3.80;;
72427;SDS011;60419;48.880;18.036;2023-07-16T12:36:49;7.78;;;4.00;;
72427;SDS011;60419;48.880;18.036;2023-07-16T12:39:34;4.40;;;3.60;;
72427;SDS011;60419;48.880;18.036;2023-07-16T12:42:20;6.28;;;3.80;;
72427;SDS011;60419;48.880;18.036;2023-07-16T12:45:05;7.35;;;3.72;;
72427;SDS011;60419;48.880;18.036;2023-07-16T12:47:51;10.27;;;4.30;;
72427;SDS011;60419;48.880;18.036;2023-07-16T12:50:36;7.22;;;3.80;;
72427;SDS011;60419;48.880;18.036;2023-07-16T12:53:22;6.22;;;4.03;;
72427;SDS011;60419;48.880;18.036;2023-07-16T12:56:08;6.68;;;4.10;;
72427;SDS011;60419;48.880;18.036;2023-07-16T12:58:53;7.28;;;4.22;;
72427;SDS011;60419;48.880;18.036;2023-07-16T13:01:39;5.75;;;4.15;;
72427;SDS011;60419;48.880;18.036;2023-07-16T13:04:24;4.68;;;3.78;;
72427;SDS011;60419;48.880;18.036;2023-07-16T13:07:10;6.95;;;4.10;;
72427;SDS011;60419;48.880;18.036;2023-07-16T13:09:55;6.20;;;4.18;;
72427;SDS011;60419;48.880;18.036;2023-07-16T13:12:40;5.85;;;3.83;;
72427;SDS011;60419;48.880;18.036;2023-07-16T13:15:26;5.47;;;3.90;;
72427;SDS011;60419;48.880;18.036;2023-07-16T13:18:11;6.22;;;4.00;;
72427;SDS011;60419;48.880;18.036;2023-07-16T13:20:57;7.28;;;4.20;;
72427;SDS011;60419;48.880;18.036;2023-07-16T13:23:42;7.50;;;4.63;;
72427;SDS011;60419;48.880;18.036;2023-07-16T13:26:27;6.20;;;4.30;;
72427;SDS011;60419;48.880;18.036;2023-07-16T13:29:13;5.72;;;3.50;;
72427;SDS011;60419;48.880;18.036;2023-07-16T13:31:58;7.38;;;3.47;;
72427;SDS011;60419;48.880;18.036;2023-07-16T13:34:44;5.95;;;3.50;;
72427;SDS011;60419;48.880;18.036;2023-07-16T13:37:29;7.43;;;4.05;;
72427;SDS011;60419;48.880;18.036;2023-07-16T13:40:15;8.02;;;3.78;;
72427;SDS011;60419;48.880;18.036;2023-07-16T13:43:01;6.32;;;3.65;;
72427;SDS011;60419;48.880;18.036;2023-07-16T13:45:47;6.60;;;3.53;;
72427;SDS011;60419;48.880;18.036;2023-07-16T13:48:32;7.93;;;3.72;;
72427;SDS011;60419;48.880;18.036;2023-07-16T13:51:18;5.90;;;4.03;;
72427;SDS011;60419;48.880;18.036;2023-07-16T13:54:03;5.53;;;3.70;;
72427;SDS011;60419;48.880;18.036;2023-07-16T13:56:48;7.38;;;3.97;;
72427;SDS011;60419;48.880;18.036;2023-07-16T13:59:34;6.43;;;3.60;;
72427;SDS011;60419;48.880;18.036;2023-07-16T14:02:19;5.72;;;4.00;;
72427;SDS011;60419;48.880;18.036;2023-07-16T14:05:05;6.05;;;3.80;;
72427;SDS011;60419;48.880;18.036;2023-07-16T14:07:50;5.70;;;3.90;;
72427;SDS011;60419;48.880;18.036;2023-07-16T14:10:38;8.05;;;4.05;;
72427;SDS011;60419;48.880;18.036;2023-07-16T14:13:24;7.53;;;3.78;;
72427;SDS011;60419;48.880;18.036;2023-07-16T14:16:09;9.48;;;3.70;;
72427;SDS011;60419;48.880;18.036;2023-07-16T14:18:54;8.73;;;3.83;;
72427;SDS011;60419;48.880;18.036;2023-07-16T14:21:41;6.25;;;3.80;;
72427;SDS011;60419;48.880;18.036;2023-07-16T14:24:26;5.88;;;3.42;;
72427;SDS011;60419;48.880;18.036;2023-07-16T14:27:11;6.55;;;3.30;;
72427;SDS011;60419;48.880;18.036;2023-07-16T14:29:58;6.75;;;3.40;;
72427;SDS011;60419;48.880;18.036;2023-07-16T14:32:44;6.13;;;3.83;;
72427;SDS011;60419;48.880;18.036;2023-07-16T14:35:29;7.25;;;3.80;;
72427;SDS011;60419;48.880;18.036;2023-07-16T14:38:15;5.95;;;3.90;;
72427;SDS011;60419;48.880;18.036;2023-07-16T14:41:00;5.47;;;3.60;;
72427;SDS011;60419;48.880;18.036;2023-07-16T14:43:46;5.75;;;3.65;;
72427;SDS011;60419;48.880;18.036;2023-07-16T14:46:34;6.18;;;3.60;;
72427;SDS011;60419;48.880;18.036;2023-07-16T14:49:20;5.32;;;3.40;;
72427;SDS011;60419;48.880;18.036;2023-07-16T14:52:05;6.30;;;3.80;;
72427;SDS011;60419;48.880;18.036;2023-07-16T14:54:51;7.03;;;3.20;;
72427;SDS011;60419;48.880;18.036;2023-07-16T14:57:36;8.02;;;3.85;;
72427;SDS011;60419;48.880;18.036;2023-07-16T15:00:22;5.97;;;3.40;;
72427;SDS011;60419;48.880;18.036;2023-07-16T15:03:07;6.65;;;3.17;;
72427;SDS011;60419;48.880;18.036;2023-07-16T15:05:56;6.30;;;3.35;;
72427;SDS011;60419;48.880;18.036;2023-07-16T15:08:43;7.70;;;3.83;;
72427;SDS011;60419;48.880;18.036;2023-07-16T15:11:28;6.70;;;3.70;;
72427;SDS011;60419;48.880;18.036;2023-07-16T15:14:13;8.20;;;3.47;;
72427;SDS011;60419;48.880;18.036;2023-07-16T15:17:05;5.10;;;3.50;;
72427;SDS011;60419;48.880;18.036;2023-07-16T15:19:51;5.35;;;3.53;;
72427;SDS011;60419;48.880;18.036;2023-07-16T15:22:36;6.60;;;3.63;;
72427;SDS011;60419;48.880;18.036;2023-07-16T15:25:23;5.97;;;3.53;;
72427;SDS011;60419;48.880;18.036;2023-07-16T15:28:11;6.30;;;3.28;;
72427;SDS011;60419;48.880;18.036;2023-07-16T15:30:57;5.15;;;3.30;;
72427;SDS011;60419;48.880;18.036;2023-07-16T15:33:42;9.15;;;3.55;;
72427;SDS011;60419;48.880;18.036;2023-07-16T15:36:27;8.88;;;3.65;;
72427;SDS011;60419;48.880;18.036;2023-07-16T15:39:13;8.32;;;3.75;;
72427;SDS011;60419;48.880;18.036;2023-07-16T15:41:58;5.18;;;3.45;;
72427;SDS011;60419;48.880;18.036;2023-07-16T15:44:44;5.82;;;3.20;;
72427;SDS011;60419;48.880;18.036;2023-07-16T15:47:29;5.03;;;3.05;;
72427;SDS011;60419;48.880;18.036;2023-07-16T15:50:14;5.10;;;2.85;;
72427;SDS011;60419;48.880;18.036;2023-07-16T15:53:00;7.38;;;3.38;;
72427;SDS011;60419;48.880;18.036;2023-07-16T15:55:45;6.53;;;3.25;;
72427;SDS011;60419;48.880;18.036;2023-07-16T15:58:31;4.25;;;2.78;;
72427;SDS011;60419;48.880;18.036;2023-07-16T16:01:16;6.35;;;3.50;;
72427;SDS011;60419;48.880;18.036;2023-07-16T16:04:02;6.22;;;3.13;;
72427;SDS011;60419;48.880;18.036;2023-07-16T16:06:47;6.03;;;3.00;;
72427;SDS011;60419;48.880;18.036;2023-07-16T16:09:33;6.07;;;3.05;;
72427;SDS011;60419;48.880;18.036;2023-07-16T16:12:18;5.75;;;3.03;;
72427;SDS011;60419;48.880;18.036;2023-07-16T16:15:04;5.45;;;3.20;;
72427;SDS011;60419;48.880;18.036;2023-07-16T16:17:49;6.20;;;3.17;;
72427;SDS011;60419;48.880;18.036;2023-07-16T16:20:35;7.67;;;3.23;;
72427;SDS011;60419;48.880;18.036;2023-07-16T16:23:20;5.30;;;2.92;;
72427;SDS011;60419;48.880;18.036;2023-07-16T16:26:06;8.65;;;3.17;;
72427;SDS011;60419;48.880;18.036;2023-07-16T16:28:51;5.53;;;3.10;;
72427;SDS011;60419;48.880;18.036;2023-07-16T16:31:37;4.75;;;3.03;;